createdAt,value
2022-12-23T00:13:02.876Z,8.51
2022-12-23T00:43:07.194Z,8.61
2022-12-23T01:13:11.241Z,8.54
2022-12-23T01:43:20.334Z,8.58
2022-12-23T02:13:31.098Z,8.59
2022-12-23T02:43:40.960Z,8.56
2022-12-23T03:14:10.287Z,8.58
2022-12-23T03:44:18.376Z,8.51
2022-12-23T04:14:23.636Z,8.49
2022-12-23T04:44:27.681Z,8.70
2022-12-23T05:14:31.712Z,8.46
2022-12-23T05:44:35.747Z,8.58
2022-12-23T06:14:40.061Z,8.60
2022-12-23T06:44:44.096Z,8.75
2022-12-23T07:14:48.112Z,8.73
2022-12-23T07:44:52.141Z,8.66
2022-12-23T08:14:56.318Z,8.72
2022-12-23T08:45:00.951Z,8.95
2022-12-23T09:15:05.536Z,9.00
2022-12-23T09:45:18.054Z,9.23
2022-12-23T10:15:24.094Z,9.02
2022-12-23T10:45:42.485Z,8.78
2022-12-23T11:15:46.574Z,8.32
2022-12-23T11:46:17.956Z,8.38
2022-12-23T12:16:34.606Z,8.49
2022-12-23T12:46:43.714Z,9.06
2022-12-23T13:16:53.364Z,9.07
2022-12-23T13:47:04.109Z,8.98
2022-12-23T14:17:12.740Z,8.94
2022-12-23T14:47:35.054Z,9.18
2022-12-23T15:17:40.584Z,9.45
2022-12-23T15:47:45.882Z,10.16
2022-12-23T16:17:50.294Z,10.72
2022-12-23T16:47:57.131Z,10.89
2022-12-23T17:18:01.205Z,11.01
2022-12-23T17:48:05.758Z,10.86
2022-12-23T18:18:19.011Z,10.38
2022-12-23T18:48:26.120Z,10.09
2022-12-23T19:18:30.363Z,9.98
2022-12-23T19:48:34.794Z,10.00
2022-12-23T20:18:39.371Z,9.97
2022-12-23T20:48:43.438Z,9.95
2022-12-23T21:18:50.474Z,9.74
2022-12-23T21:48:56.063Z,9.53
2022-12-23T22:19:01.187Z,9.57
2022-12-23T22:49:05.219Z,9.65
2022-12-23T23:19:10.811Z,9.64
2022-12-23T23:49:15.291Z,9.53
